createdAt,value
2019-04-21T00:00:05.886Z,5.4
2019-04-21T00:05:24.346Z,5.4
2019-04-21T00:10:26.769Z,5.3
2019-04-21T00:15:13.356Z,5.3
2019-04-21T00:20:12.356Z,5.2
2019-04-21T00:25:17.812Z,5.2
2019-04-21T00:30:21.200Z,5.1
2019-04-21T00:35:08.063Z,5
2019-04-21T00:40:21.876Z,4.9
2019-04-21T00:45:14.942Z,4.9
2019-04-21T00:50:24.540Z,4.8
2019-04-21T01:00:21.882Z,4.8
2019-04-21T01:05:25.272Z,4.7
2019-04-21T01:10:14.319Z,4.5
2019-04-21T01:15:30.427Z,4.5
2019-04-21T01:20:15.682Z,4.5
2019-04-21T01:25:08.841Z,4.4
2019-04-21T01:30:22.026Z,4.3
2019-04-21T01:35:20.556Z,4.3
2019-04-21T01:40:28.639Z,4.2
2019-04-21T01:45:21.046Z,4.2
2019-04-21T01:50:11.683Z,4.1
2019-04-21T01:55:24.779Z,4
2019-04-21T02:00:12.924Z,3.9
2019-04-21T02:05:25.698Z,4
2019-04-21T02:10:26.479Z,3.9
2019-04-21T02:15:23.312Z,3.9
2019-04-21T02:20:15.118Z,3.8
2019-04-21T02:25:25.668Z,3.8
2019-04-21T02:30:35.200Z,3.8
2019-04-21T02:35:38.093Z,3.7
2019-04-21T02:45:29.464Z,3.7
2019-04-21T02:50:31.345Z,3.6
2019-04-21T02:55:36.078Z,3.5
2019-04-21T03:00:42.427Z,3.5
2019-04-21T03:10:34.557Z,3.2
2019-04-21T03:15:46.877Z,3.2
2019-04-21T03:20:33.180Z,3.2
2019-04-21T03:40:25.295Z,3
2019-04-21T03:50:46.675Z,3
2019-04-21T04:10:42.485Z,3
2019-04-21T04:15:38.021Z,3
2019-04-21T04:25:33.252Z,3.1
2019-04-21T04:30:37.672Z,3
2019-04-21T04:35:41.938Z,3.1
2019-04-21T04:40:30.474Z,3.1
2019-04-21T04:45:38.196Z,3.3
2019-04-21T04:50:38.945Z,3.9
2019-04-21T04:55:33.010Z,4.4
2019-04-21T05:00:34.191Z,5
2019-04-21T05:05:46.572Z,6
2019-04-21T05:10:38.185Z,6.3
2019-04-21T05:15:23.193Z,6.4
2019-04-21T05:20:22.646Z,6.4
2019-04-21T05:25:18.356Z,6.4
2019-04-21T05:30:28.231Z,6.4
2019-04-21T05:35:19.731Z,6.5
2019-04-21T05:40:17.162Z,6.5
2019-04-21T05:45:26.660Z,6.6
2019-04-21T05:50:16.426Z,7
2019-04-21T05:55:24.271Z,7.3
2019-04-21T06:00:22.820Z,7.6
2019-04-21T06:05:28.000Z,8.1
2019-04-21T06:10:26.952Z,8.4
2019-04-21T06:15:29.187Z,8.8
2019-04-21T06:20:26.898Z,9.6
2019-04-21T06:30:25.095Z,10.5
2019-04-21T06:35:27.913Z,10.8
2019-04-21T06:40:27.568Z,11.1
2019-04-21T06:45:27.110Z,11.3
2019-04-21T06:50:22.214Z,11.6
2019-04-21T06:55:26.249Z,12
2019-04-21T07:00:18.287Z,12.3
2019-04-21T07:05:26.074Z,12.6
2019-04-21T07:10:36.668Z,13
2019-04-21T07:15:24.770Z,13.1
2019-04-21T07:20:21.314Z,13.4
2019-04-21T07:25:27.662Z,13.7
2019-04-21T07:30:24.154Z,13.7
2019-04-21T07:35:20.601Z,13.9
2019-04-21T07:40:18.881Z,14.1
2019-04-21T07:45:16.287Z,14.2
2019-04-21T07:50:26.173Z,14.4
2019-04-21T08:00:28.719Z,14.8
2019-04-21T08:10:20.875Z,15.1
2019-04-21T08:20:18.298Z,15.6
2019-04-21T08:25:19.175Z,16
2019-04-21T08:30:25.512Z,16
2019-04-21T08:40:26.105Z,16.4
2019-04-21T08:45:27.725Z,16.8
2019-04-21T08:50:20.369Z,17.1
2019-04-21T08:55:24.762Z,17.4
2019-04-21T09:00:25.843Z,17.6
2019-04-21T09:05:17.369Z,17.8
2019-04-21T09:10:21.758Z,17.9
2019-04-21T09:15:18.768Z,18
2019-04-21T09:25:26.365Z,18.3
2019-04-21T09:30:04.790Z,18.5
2019-04-21T09:35:03.280Z,19
2019-04-21T09:40:02.991Z,19.2
2019-04-21T09:45:04.837Z,19.4
2019-04-21T09:50:04.442Z,19.3
2019-04-21T09:55:06.759Z,19.4
2019-04-21T10:00:08.513Z,19.5
2019-04-21T10:05:02.017Z,19.5
2019-04-21T10:10:01.355Z,19.8
2019-04-21T10:15:01.934Z,20.3
2019-04-21T10:20:03.072Z,20.4
2019-04-21T10:25:02.781Z,20.9
2019-04-21T10:30:03.562Z,21.5
2019-04-21T10:35:01.345Z,21.6
2019-04-21T10:40:03.397Z,21.9
2019-04-21T10:45:01.227Z,21.7
2019-04-21T10:50:02.690Z,22.1
2019-04-21T10:55:16.297Z,22.5
2019-04-21T11:00:01.760Z,22.8
2019-04-21T11:05:02.925Z,22.9
2019-04-21T11:10:02.447Z,23.1
2019-04-21T11:15:03.169Z,23.5
2019-04-21T11:20:01.352Z,23.5
2019-04-21T11:25:02.969Z,23.4
2019-04-21T11:30:02.323Z,23.4
2019-04-21T11:35:03.278Z,23.3
2019-04-21T11:40:07.115Z,23.2
2019-04-21T11:45:01.633Z,23.5
2019-04-21T11:50:03.245Z,23.3
2019-04-21T11:55:02.757Z,23.5
2019-04-21T12:00:02.070Z,23.4
2019-04-21T12:05:03.448Z,23.6
2019-04-21T12:10:01.834Z,23.3
2019-04-21T12:15:01.973Z,23.3
2019-04-21T12:20:03.256Z,23
2019-04-21T12:25:03.022Z,22.7
2019-04-21T12:30:02.174Z,22.9
2019-04-21T12:35:01.771Z,22.1
2019-04-21T12:40:03.127Z,22.1
2019-04-21T12:45:03.453Z,22.3
2019-04-21T12:50:02.566Z,22.7
2019-04-21T12:55:02.043Z,23.2
2019-04-21T13:00:02.771Z,22.8
2019-04-21T13:05:02.043Z,22.3
2019-04-21T13:10:02.317Z,22.2
2019-04-21T13:15:03.898Z,22.2
2019-04-21T13:20:03.291Z,22.2
2019-04-21T13:25:02.363Z,22
2019-04-21T13:30:02.190Z,21.7
2019-04-21T13:35:01.417Z,21.1
2019-04-21T13:40:24.706Z,21
2019-04-21T13:45:02.912Z,21.1
2019-04-21T13:50:03.500Z,20.8
2019-04-21T13:55:03.364Z,20.4
2019-04-21T14:00:01.566Z,20.3
2019-04-21T14:05:01.633Z,20.5
2019-04-21T14:10:06.286Z,19.9
2019-04-21T14:15:02.273Z,20.1
2019-04-21T14:20:01.537Z,20.1
2019-04-21T14:25:03.669Z,19.8
2019-04-21T14:30:02.854Z,20.1
2019-04-21T14:35:03.054Z,20
2019-04-21T14:40:07.289Z,19.8
2019-04-21T14:45:03.167Z,19.5
2019-04-21T14:50:03.038Z,19.3
2019-04-21T14:55:02.814Z,19.2
2019-04-21T15:00:02.906Z,19
2019-04-21T15:05:02.084Z,18.9
2019-04-21T15:10:09.669Z,18.7
2019-04-21T15:15:02.203Z,18.6
2019-04-21T15:20:05.566Z,18.5
2019-04-21T15:25:02.719Z,18.6
2019-04-21T15:30:02.932Z,18.7
2019-04-21T15:35:02.294Z,18.7
2019-04-21T15:40:11.124Z,18.7
2019-04-21T15:45:02.884Z,18.6
2019-04-21T15:50:08.726Z,18.6
2019-04-21T15:55:03.253Z,18.4
2019-04-21T16:00:02.722Z,18.3
2019-04-21T16:05:02.451Z,18.4
2019-04-21T16:10:02.020Z,18.1
2019-04-21T16:15:02.878Z,17.9
2019-04-21T16:20:02.099Z,17.9
2019-04-21T16:25:01.163Z,17.8
2019-04-21T16:30:02.162Z,17.7
2019-04-21T16:35:06.952Z,17.6
2019-04-21T16:40:01.564Z,17.5
2019-04-21T16:45:03.054Z,17.7
2019-04-21T16:50:03.404Z,17.8
2019-04-21T16:55:05.034Z,17.7
2019-04-21T17:00:02.425Z,17.5
2019-04-21T17:05:02.603Z,17
2019-04-21T17:10:02.496Z,16.6
2019-04-21T17:15:18.205Z,16.1
2019-04-21T17:20:15.580Z,15.8
2019-04-21T17:25:02.616Z,15.4
2019-04-21T17:30:02.344Z,15.2
2019-04-21T17:35:01.910Z,15.1
2019-04-21T17:40:05.185Z,14.9
2019-04-21T17:45:03.504Z,14.8
2019-04-21T17:50:04.075Z,14.7
2019-04-21T17:55:10.195Z,14.5
2019-04-21T18:00:23.341Z,14.3
2019-04-21T18:05:20.805Z,14.2
2019-04-21T18:10:15.456Z,14.1
2019-04-21T18:15:17.982Z,14
2019-04-21T18:20:03.807Z,13.9
2019-04-21T18:25:06.578Z,13.8
2019-04-21T18:30:02.459Z,13.6
2019-04-21T18:35:05.240Z,13.5
2019-04-21T18:40:09.333Z,13.3
2019-04-21T18:50:02.017Z,13.1
2019-04-21T18:55:16.146Z,12.8
2019-04-21T19:00:08.470Z,12.7
2019-04-21T19:05:09.752Z,12.6
2019-04-21T19:15:15.620Z,12.5
2019-04-21T19:25:20.458Z,12.2
2019-04-21T19:30:28.121Z,12.2
2019-04-21T19:35:05.157Z,12.1
2019-04-21T19:40:14.036Z,12
2019-04-21T19:45:17.472Z,11.9
2019-04-21T19:50:22.961Z,11.8
2019-04-21T19:55:02.487Z,11.7
2019-04-21T20:00:04.096Z,11.7
2019-04-21T20:05:06.953Z,11.6
2019-04-21T20:10:22.332Z,11.6
2019-04-21T20:15:25.404Z,11.5
2019-04-21T20:20:03.686Z,11.5
2019-04-21T20:25:07.868Z,11.4
2019-04-21T20:30:19.906Z,11.4
2019-04-21T20:35:21.084Z,11.4
2019-04-21T20:40:04.988Z,11.5
2019-04-21T20:45:45.383Z,11.6
2019-04-21T20:50:15.049Z,11.8
2019-04-21T20:55:13.985Z,11.9
2019-04-21T21:00:18.188Z,12
2019-04-21T21:05:15.186Z,12.1
2019-04-21T21:10:16.440Z,12.1
2019-04-21T21:15:09.894Z,12.1
2019-04-21T21:20:17.805Z,12.1
2019-04-21T21:25:25.436Z,12
2019-04-21T21:30:14.213Z,11.9
2019-04-21T21:35:17.267Z,11.8
2019-04-21T21:40:21.663Z,11.8
2019-04-21T21:45:08.247Z,11.7
2019-04-21T21:50:10.706Z,11.7
2019-04-21T21:55:01.889Z,11.6
2019-04-21T22:00:04.578Z,11.5
2019-04-21T22:05:09.122Z,11.5
2019-04-21T22:10:02.416Z,11.4
2019-04-21T22:15:08.887Z,11.3
2019-04-21T22:20:18.961Z,11.3
2019-04-21T22:25:09.589Z,11.3
2019-04-21T22:30:05.586Z,11.2
2019-04-21T22:35:06.843Z,11.2
2019-04-21T22:40:12.139Z,11.2
2019-04-21T22:45:01.689Z,11.2
2019-04-21T22:50:02.624Z,11.1
2019-04-21T22:55:08.078Z,11.1
2019-04-21T23:00:05.542Z,11
2019-04-21T23:05:03.740Z,10.9
2019-04-21T23:10:01.632Z,10.8
2019-04-21T23:15:08.122Z,10.7
2019-04-21T23:20:22.305Z,10.6
2019-04-21T23:25:22.174Z,10.4
2019-04-21T23:30:25.375Z,10.2
2019-04-21T23:35:12.946Z,10.1
2019-04-21T23:40:09.206Z,10.1
2019-04-21T23:45:03.612Z,9.9
2019-04-21T23:50:08.550Z,9.9
2019-04-21T23:55:03.169Z,9.8
